Alpha, IL

11:35 AM CST on March 06, 2015 (GMT -0600)
Old Schoolhouse Lane | Change Station
CLOSE
Current Station
Personal Weather Station
Location: Ophiem, IL
Elevation: 696 ft
Nearby Weather Stations

Elev 696 ft 41.25 °N, 90.38 °W | Updated 14 seconds ago

Clear
Clear
35.6 °F
Feels Like 32 °F
N
4.3
Wind Variable Wind from South
Gusts 8.5 mph

Today
High -- | Low -- °F
--% Chance of Precip.
Yesterday
High -- | Low -- °F
Precip. -- in
6:28 AM 5:57 PM
Full, 99% visible
Pressure 30.27 in
Visibility 10.0 miles
Clouds Clear
Windchill 32 °F
Dew Point 16 °F
Humidity 45%
Rainfall in
Snow Depth Not available.
UV 5 out of 12
Pollen .30 out of 12
Air Quality Not available.
Flu Activity Not available.
METAR KGBG 061715Z AUTO 18014G19KT 10SM CLR M02/M09 A3027 RMK AO2 T10251089

More Conditions Fewer Conditions

Pressure 30.27 in
Visibility 10.0 miles
Clouds Clear
Windchill 32 °F
Dew Point 16 °F
Humidity 45%
Rainfall in
Snow Depth Not available.
UV 5 out of 12
Pollen .30 out of 12
Air Quality Not available.
Flu Activity Not available.
METAR KGBG 061715Z AUTO 18014G19KT 10SM CLR M02/M09 A3027 RMK AO2 T10251089

More Conditions Fewer Conditions

10-Day Weather Forecast

Almanac

Astronomy

Mar. 06, 2015 Rise Set
Actual Time
Civil Twilight
Nautical Twilight
Astronomical Twilight
Moon
Length of Visible Light
Length of Day
Tomorrow will be .
, % of the Moon is Illuminated

Today's Extremes

State Highs State Lows

Community

WunderPhotos

Upload Photos

1,803,345 photos uploaded!

WunderBlogs® & News

Nearby

Air Quality

  Air Quality AQ Index Pollutant
Not available.

Snow Depth

Station Depth Elevation

Earthquake Activity

City Distance Mag. Time & Date
Minimum magnitude displayed is 2.5.

Coastal Water Temperatures

Place Temperature

Nearby Weather Stations